sensor_id;sensor_type;location;lat;lon;timestamp;temperature;humidity
31783;DHT22;18351;47.560;9.708;2023-04-01T00:00:29;9.90;99.90
31783;DHT22;18351;47.560;9.708;2023-04-01T00:02:55;9.90;99.90
31783;DHT22;18351;47.560;9.708;2023-04-01T00:05:21;9.90;99.90
31783;DHT22;18351;47.560;9.708;2023-04-01T00:07:46;9.80;99.90
31783;DHT22;18351;47.560;9.708;2023-04-01T00:10:13;9.80;99.90
31783;DHT22;18351;47.560;9.708;2023-04-01T00:12:40;9.80;99.90
31783;DHT22;18351;47.560;9.708;2023-04-01T00:15:07;9.80;99.90
31783;DHT22;18351;47.560;9.708;2023-04-01T00:17:33;9.80;99.90
31783;DHT22;18351;47.560;9.708;2023-04-01T00:19:59;9.80;99.90
31783;DHT22;18351;47.560;9.708;2023-04-01T00:22:25;9.80;99.90
31783;DHT22;18351;47.560;9.708;2023-04-01T00:24:51;9.80;99.90
31783;DHT22;18351;47.560;9.708;2023-04-01T00:27:17;9.80;99.90
31783;DHT22;18351;47.560;9.708;2023-04-01T00:29:44;9.80;99.90
31783;DHT22;18351;47.560;9.708;2023-04-01T00:32:10;9.80;99.90
31783;DHT22;18351;47.560;9.708;2023-04-01T00:34:35;9.80;99.90
31783;DHT22;18351;47.560;9.708;2023-04-01T00:37:02;9.80;99.90
31783;DHT22;18351;47.560;9.708;2023-04-01T00:39:31;9.80;99.90
31783;DHT22;18351;47.560;9.708;2023-04-01T00:41:58;9.80;99.90
31783;DHT22;18351;47.560;9.708;2023-04-01T00:44:30;9.80;99.90
31783;DHT22;18351;47.560;9.708;2023-04-01T00:46:56;9.80;99.90
31783;DHT22;18351;47.560;9.708;2023-04-01T00:49:25;9.70;99.90
31783;DHT22;18351;47.560;9.708;2023-04-01T00:51:54;9.70;99.90
31783;DHT22;18351;47.560;9.708;2023-04-01T00:54:21;9.70;99.90
31783;DHT22;18351;47.560;9.708;2023-04-01T00:56:54;9.70;99.90
31783;DHT22;18351;47.560;9.708;2023-04-01T00:59:27;9.60;99.90
31783;DHT22;18351;47.560;9.708;2023-04-01T01:01:55;9.60;99.90
31783;DHT22;18351;47.560;9.708;2023-04-01T01:04:26;9.60;99.90
31783;DHT22;18351;47.560;9.708;2023-04-01T01:07:12;9.60;99.90
31783;DHT22;18351;47.560;9.708;2023-04-01T01:09:53;9.60;99.90
31783;DHT22;18351;47.560;9.708;2023-04-01T01:17:48;9.60;99.90
31783;DHT22;18351;47.560;9.708;2023-04-01T01:23:29;9.50;99.90
31783;DHT22;18351;47.560;9.708;2023-04-01T01:26:27;9.50;99.90
31783;DHT22;18351;47.560;9.708;2023-04-01T01:37:05;9.50;99.90
31783;DHT22;18351;47.560;9.708;2023-04-01T01:39:33;9.50;99.90
31783;DHT22;18351;47.560;9.708;2023-04-01T01:42:04;9.50;99.90
31783;DHT22;18351;47.560;9.708;2023-04-01T01:44:32;9.50;99.90
31783;DHT22;18351;47.560;9.708;2023-04-01T01:47:00;9.50;99.90
31783;DHT22;18351;47.560;9.708;2023-04-01T01:49:27;9.40;99.90
31783;DHT22;18351;47.560;9.708;2023-04-01T01:51:55;9.30;99.90
31783;DHT22;18351;47.560;9.708;2023-04-01T01:54:21;9.20;99.90
31783;DHT22;18351;47.560;9.708;2023-04-01T01:56:49;9.10;99.90
31783;DHT22;18351;47.560;9.708;2023-04-01T01:59:17;9.10;99.90
31783;DHT22;18351;47.560;9.708;2023-04-01T02:01:50;9.00;99.90
31783;DHT22;18351;47.560;9.708;2023-04-01T02:04:18;9.00;99.90
31783;DHT22;18351;47.560;9.708;2023-04-01T02:06:56;8.90;99.90
31783;DHT22;18351;47.560;9.708;2023-04-01T02:09:25;8.90;99.90
31783;DHT22;18351;47.560;9.708;2023-04-01T02:12:05;8.90;99.90
31783;DHT22;18351;47.560;9.708;2023-04-01T02:17:18;8.90;99.90
31783;DHT22;18351;47.560;9.708;2023-04-01T02:19:51;8.80;99.90
31783;DHT22;18351;47.560;9.708;2023-04-01T02:22:21;8.90;99.90
31783;DHT22;18351;47.560;9.708;2023-04-01T02:24:52;8.90;99.90
31783;DHT22;18351;47.560;9.708;2023-04-01T02:27:19;8.90;99.90
31783;DHT22;18351;47.560;9.708;2023-04-01T02:29:45;8.90;99.90
31783;DHT22;18351;47.560;9.708;2023-04-01T02:32:12;8.90;99.90
31783;DHT22;18351;47.560;9.708;2023-04-01T02:34:39;8.80;99.90
31783;DHT22;18351;47.560;9.708;2023-04-01T02:37:05;8.90;99.90
31783;DHT22;18351;47.560;9.708;2023-04-01T02:39:31;8.90;99.90
31783;DHT22;18351;47.560;9.708;2023-04-01T02:41:57;8.90;99.90
31783;DHT22;18351;47.560;9.708;2023-04-01T02:44:22;8.90;99.90
31783;DHT22;18351;47.560;9.708;2023-04-01T02:46:48;9.00;99.90
31783;DHT22;18351;47.560;9.708;2023-04-01T02:49:14;9.10;99.90
31783;DHT22;18351;47.560;9.708;2023-04-01T02:51:40;9.10;99.90
31783;DHT22;18351;47.560;9.708;2023-04-01T02:54:05;9.10;99.90
31783;DHT22;18351;47.560;9.708;2023-04-01T02:56:31;9.10;99.90
31783;DHT22;18351;47.560;9.708;2023-04-01T02:58:57;9.20;99.90
31783;DHT22;18351;47.560;9.708;2023-04-01T03:01:23;9.20;99.90
31783;DHT22;18351;47.560;9.708;2023-04-01T03:03:49;9.10;99.90
31783;DHT22;18351;47.560;9.708;2023-04-01T03:06:16;9.10;99.90
31783;DHT22;18351;47.560;9.708;2023-04-01T03:08:41;9.20;99.90
31783;DHT22;18351;47.560;9.708;2023-04-01T03:11:08;9.20;99.90
31783;DHT22;18351;47.560;9.708;2023-04-01T03:13:34;9.30;99.90
31783;DHT22;18351;47.560;9.708;2023-04-01T03:16:00;9.20;99.90
31783;DHT22;18351;47.560;9.708;2023-04-01T03:18:25;9.20;99.90
31783;DHT22;18351;47.560;9.708;2023-04-01T03:20:51;9.30;99.90
31783;DHT22;18351;47.560;9.708;2023-04-01T03:23:16;9.20;99.90
31783;DHT22;18351;47.560;9.708;2023-04-01T03:25:44;9.10;99.90
31783;DHT22;18351;47.560;9.708;2023-04-01T03:28:10;9.00;99.90
31783;DHT22;18351;47.560;9.708;2023-04-01T03:30:36;9.00;99.90
31783;DHT22;18351;47.560;9.708;2023-04-01T03:33:02;9.00;99.90
31783;DHT22;18351;47.560;9.708;2023-04-01T03:35:28;9.00;99.90
31783;DHT22;18351;47.560;9.708;2023-04-01T03:37:54;9.00;99.90
31783;DHT22;18351;47.560;9.708;2023-04-01T03:40:20;9.00;99.90
31783;DHT22;18351;47.560;9.708;2023-04-01T03:42:46;9.00;99.90
31783;DHT22;18351;47.560;9.708;2023-04-01T03:45:12;9.00;99.90
31783;DHT22;18351;47.560;9.708;2023-04-01T03:47:38;9.00;99.90
31783;DHT22;18351;47.560;9.708;2023-04-01T03:50:04;9.00;99.90
31783;DHT22;18351;47.560;9.708;2023-04-01T03:52:30;9.00;99.90
31783;DHT22;18351;47.560;9.708;2023-04-01T03:54:56;8.90;99.90
31783;DHT22;18351;47.560;9.708;2023-04-01T03:57:21;9.00;99.90
31783;DHT22;18351;47.560;9.708;2023-04-01T03:59:47;9.10;99.90
31783;DHT22;18351;47.560;9.708;2023-04-01T04:02:13;9.10;99.90
31783;DHT22;18351;47.560;9.708;2023-04-01T04:04:38;9.00;99.90
31783;DHT22;18351;47.560;9.708;2023-04-01T04:07:04;9.10;99.90
31783;DHT22;18351;47.560;9.708;2023-04-01T04:09:32;9.10;99.90
31783;DHT22;18351;47.560;9.708;2023-04-01T04:11:59;9.10;99.90
31783;DHT22;18351;47.560;9.708;2023-04-01T04:14:25;9.10;99.90
31783;DHT22;18351;47.560;9.708;2023-04-01T04:16:51;9.10;99.90
31783;DHT22;18351;47.560;9.708;2023-04-01T04:19:16;9.10;99.90
31783;DHT22;18351;47.560;9.708;2023-04-01T04:21:42;9.10;99.90
31783;DHT22;18351;47.560;9.708;2023-04-01T04:24:08;9.00;99.90
31783;DHT22;18351;47.560;9.708;2023-04-01T04:26:34;9.10;99.90
31783;DHT22;18351;47.560;9.708;2023-04-01T04:28:59;9.10;99.90
31783;DHT22;18351;47.560;9.708;2023-04-01T04:31:25;9.00;99.90
31783;DHT22;18351;47.560;9.708;2023-04-01T04:33:52;9.00;99.90
31783;DHT22;18351;47.560;9.708;2023-04-01T04:36:18;9.00;99.90
31783;DHT22;18351;47.560;9.708;2023-04-01T04:38:43;9.00;99.90
31783;DHT22;18351;47.560;9.708;2023-04-01T04:41:13;9.00;99.90
31783;DHT22;18351;47.560;9.708;2023-04-01T04:43:40;9.10;99.90
31783;DHT22;18351;47.560;9.708;2023-04-01T04:46:09;9.10;99.90
31783;DHT22;18351;47.560;9.708;2023-04-01T04:48:36;9.10;99.90
31783;DHT22;18351;47.560;9.708;2023-04-01T04:51:02;9.10;99.90
31783;DHT22;18351;47.560;9.708;2023-04-01T04:53:28;9.00;99.90
31783;DHT22;18351;47.560;9.708;2023-04-01T04:55:54;9.00;99.90
31783;DHT22;18351;47.560;9.708;2023-04-01T04:58:20;9.00;99.90
31783;DHT22;18351;47.560;9.708;2023-04-01T05:00:46;9.00;99.90
31783;DHT22;18351;47.560;9.708;2023-04-01T05:03:12;9.00;99.90
31783;DHT22;18351;47.560;9.708;2023-04-01T05:05:39;9.00;99.90
31783;DHT22;18351;47.560;9.708;2023-04-01T05:08:05;9.10;99.90
31783;DHT22;18351;47.560;9.708;2023-04-01T05:10:30;9.10;99.90
31783;DHT22;18351;47.560;9.708;2023-04-01T05:12:57;9.10;99.90
31783;DHT22;18351;47.560;9.708;2023-04-01T05:15:23;9.10;99.90
31783;DHT22;18351;47.560;9.708;2023-04-01T05:17:48;9.20;99.90
31783;DHT22;18351;47.560;9.708;2023-04-01T05:20:14;9.20;99.90
31783;DHT22;18351;47.560;9.708;2023-04-01T05:22:41;9.20;99.90
31783;DHT22;18351;47.560;9.708;2023-04-01T05:25:07;9.20;99.90
31783;DHT22;18351;47.560;9.708;2023-04-01T05:27:33;9.20;99.90
31783;DHT22;18351;47.560;9.708;2023-04-01T05:29:58;9.20;99.90
31783;DHT22;18351;47.560;9.708;2023-04-01T05:32:24;9.10;99.90
31783;DHT22;18351;47.560;9.708;2023-04-01T05:34:53;9.10;99.90
31783;DHT22;18351;47.560;9.708;2023-04-01T05:37:19;9.10;99.90
31783;DHT22;18351;47.560;9.708;2023-04-01T05:39:45;9.10;99.90
31783;DHT22;18351;47.560;9.708;2023-04-01T05:42:11;9.00;99.90
31783;DHT22;18351;47.560;9.708;2023-04-01T05:44:36;9.00;99.90
31783;DHT22;18351;47.560;9.708;2023-04-01T05:47:03;9.10;99.90
31783;DHT22;18351;47.560;9.708;2023-04-01T05:49:29;9.10;99.90
31783;DHT22;18351;47.560;9.708;2023-04-01T05:51:55;9.10;99.90
31783;DHT22;18351;47.560;9.708;2023-04-01T05:54:21;9.10;99.90
31783;DHT22;18351;47.560;9.708;2023-04-01T05:56:47;9.10;99.90
31783;DHT22;18351;47.560;9.708;2023-04-01T05:59:12;9.10;99.90
31783;DHT22;18351;47.560;9.708;2023-04-01T06:01:38;9.10;99.90
31783;DHT22;18351;47.560;9.708;2023-04-01T06:04:04;9.20;99.90
31783;DHT22;18351;47.560;9.708;2023-04-01T06:06:31;9.20;99.90
31783;DHT22;18351;47.560;9.708;2023-04-01T06:22:45;9.30;99.90
31783;DHT22;18351;47.560;9.708;2023-04-01T06:31:10;9.50;99.90
31783;DHT22;18351;47.560;9.708;2023-04-01T06:33:59;9.60;99.90
31783;DHT22;18351;47.560;9.708;2023-04-01T06:36:37;9.60;99.90
31783;DHT22;18351;47.560;9.708;2023-04-01T06:39:27;9.70;99.90
31783;DHT22;18351;47.560;9.708;2023-04-01T06:45:07;9.70;99.90
31783;DHT22;18351;47.560;9.708;2023-04-01T06:50:30;9.90;99.90
31783;DHT22;18351;47.560;9.708;2023-04-01T06:55:47;10.10;99.90
31783;DHT22;18351;47.560;9.708;2023-04-01T07:00:44;10.30;99.90
31783;DHT22;18351;47.560;9.708;2023-04-01T07:03:26;10.40;99.90
31783;DHT22;18351;47.560;9.708;2023-04-01T07:05:59;10.50;99.90
31783;DHT22;18351;47.560;9.708;2023-04-01T07:08:28;10.70;99.90
31783;DHT22;18351;47.560;9.708;2023-04-01T07:11:01;10.90;99.90
31783;DHT22;18351;47.560;9.708;2023-04-01T07:13:32;11.00;99.90
31783;DHT22;18351;47.560;9.708;2023-04-01T07:16:08;11.00;99.90
31783;DHT22;18351;47.560;9.708;2023-04-01T07:18:50;11.00;99.90
31783;DHT22;18351;47.560;9.708;2023-04-01T07:21:26;11.00;99.90
31783;DHT22;18351;47.560;9.708;2023-04-01T07:23:58;11.00;99.90
31783;DHT22;18351;47.560;9.708;2023-04-01T07:26:26;11.00;99.90
31783;DHT22;18351;47.560;9.708;2023-04-01T07:28:53;10.80;99.90
31783;DHT22;18351;47.560;9.708;2023-04-01T07:39:37;10.70;99.90
31783;DHT22;18351;47.560;9.708;2023-04-01T07:51:03;10.90;99.90
31783;DHT22;18351;47.560;9.708;2023-04-01T07:53:42;11.00;99.90
31783;DHT22;18351;47.560;9.708;2023-04-01T07:56:22;11.10;99.90
31783;DHT22;18351;47.560;9.708;2023-04-01T08:01:53;11.20;99.90
31783;DHT22;18351;47.560;9.708;2023-04-01T08:04:48;11.30;99.90
31783;DHT22;18351;47.560;9.708;2023-04-01T08:07:26;11.30;99.90
31783;DHT22;18351;47.560;9.708;2023-04-01T08:09:58;11.20;99.90
31783;DHT22;18351;47.560;9.708;2023-04-01T08:12:50;11.20;99.90
31783;DHT22;18351;47.560;9.708;2023-04-01T08:15:26;11.00;99.90
31783;DHT22;18351;47.560;9.708;2023-04-01T08:18:15;11.00;99.90
31783;DHT22;18351;47.560;9.708;2023-04-01T08:20:50;11.00;99.90
31783;DHT22;18351;47.560;9.708;2023-04-01T08:23:24;11.10;99.90
31783;DHT22;18351;47.560;9.708;2023-04-01T08:31:09;11.00;99.90
31783;DHT22;18351;47.560;9.708;2023-04-01T08:33:36;11.10;99.90
31783;DHT22;18351;47.560;9.708;2023-04-01T08:38:55;11.20;99.90
31783;DHT22;18351;47.560;9.708;2023-04-01T08:49:50;11.30;99.90
31783;DHT22;18351;47.560;9.708;2023-04-01T08:52:23;11.20;99.90
31783;DHT22;18351;47.560;9.708;2023-04-01T09:26:01;11.20;99.30
31783;DHT22;18351;47.560;9.708;2023-04-01T09:34:33;11.00;98.90
31783;DHT22;18351;47.560;9.708;2023-04-01T09:40:09;10.90;99.60
31783;DHT22;18351;47.560;9.708;2023-04-01T09:48:19;10.70;99.90
31783;DHT22;18351;47.560;9.708;2023-04-01T09:56:19;10.60;99.90
31783;DHT22;18351;47.560;9.708;2023-04-01T10:02:01;10.50;99.90
31783;DHT22;18351;47.560;9.708;2023-04-01T10:12:17;10.20;99.90
31783;DHT22;18351;47.560;9.708;2023-04-01T10:35:23;10.30;99.90
31783;DHT22;18351;47.560;9.708;2023-04-01T10:38:19;10.40;99.90
31783;DHT22;18351;47.560;9.708;2023-04-01T10:47:08;10.40;99.90
31783;DHT22;18351;47.560;9.708;2023-04-01T10:52:23;10.60;99.90
31783;DHT22;18351;47.560;9.708;2023-04-01T11:08:50;11.20;99.90
31783;DHT22;18351;47.560;9.708;2023-04-01T11:11:55;11.30;99.90
31783;DHT22;18351;47.560;9.708;2023-04-01T11:17:49;11.60;99.90
31783;DHT22;18351;47.560;9.708;2023-04-01T11:20:28;11.70;99.90
31783;DHT22;18351;47.560;9.708;2023-04-01T11:23:14;11.80;99.90
31783;DHT22;18351;47.560;9.708;2023-04-01T11:26:29;11.80;99.90
31783;DHT22;18351;47.560;9.708;2023-04-01T11:37:21;11.80;99.90
31783;DHT22;18351;47.560;9.708;2023-04-01T11:42:38;11.70;99.90
31783;DHT22;18351;47.560;9.708;2023-04-01T11:45:15;11.70;99.90
31783;DHT22;18351;47.560;9.708;2023-04-01T11:51:01;11.70;99.90
31783;DHT22;18351;47.560;9.708;2023-04-01T11:53:57;11.70;99.90
31783;DHT22;18351;47.560;9.708;2023-04-01T12:02:51;11.80;99.90
31783;DHT22;18351;47.560;9.708;2023-04-01T12:05:43;11.80;99.90
31783;DHT22;18351;47.560;9.708;2023-04-01T12:13:42;11.80;99.90
31783;DHT22;18351;47.560;9.708;2023-04-01T12:16:39;11.90;99.90
31783;DHT22;18351;47.560;9.708;2023-04-01T12:28:10;12.30;99.90
31783;DHT22;18351;47.560;9.708;2023-04-01T12:33:51;12.20;99.90
31783;DHT22;18351;47.560;9.708;2023-04-01T12:36:50;12.10;99.90
31783;DHT22;18351;47.560;9.708;2023-04-01T12:39:37;12.10;99.90
31783;DHT22;18351;47.560;9.708;2023-04-01T12:42:21;12.10;99.90
31783;DHT22;18351;47.560;9.708;2023-04-01T12:44:56;12.00;99.90
31783;DHT22;18351;47.560;9.708;2023-04-01T12:50:34;11.80;99.90
31783;DHT22;18351;47.560;9.708;2023-04-01T12:53:20;11.70;99.90
31783;DHT22;18351;47.560;9.708;2023-04-01T12:55:50;11.70;99.90
31783;DHT22;18351;47.560;9.708;2023-04-01T12:58:37;11.70;99.90
31783;DHT22;18351;47.560;9.708;2023-04-01T13:04:30;11.80;99.90
31783;DHT22;18351;47.560;9.708;2023-04-01T13:07:41;11.80;99.90
31783;DHT22;18351;47.560;9.708;2023-04-01T13:16:16;11.40;99.90
31783;DHT22;18351;47.560;9.708;2023-04-01T13:21:58;11.30;99.90
31783;DHT22;18351;47.560;9.708;2023-04-01T13:27:42;11.20;99.90
31783;DHT22;18351;47.560;9.708;2023-04-01T13:44:37;11.80;99.90
31783;DHT22;18351;47.560;9.708;2023-04-01T13:50:31;11.50;99.90
31783;DHT22;18351;47.560;9.708;2023-04-01T13:56:15;11.20;99.90
31783;DHT22;18351;47.560;9.708;2023-04-01T14:04:35;10.80;99.90
31783;DHT22;18351;47.560;9.708;2023-04-01T14:12:58;10.60;99.90
31783;DHT22;18351;47.560;9.708;2023-04-01T14:16:14;10.70;99.90
31783;DHT22;18351;47.560;9.708;2023-04-01T14:29:38;11.20;99.90
31783;DHT22;18351;47.560;9.708;2023-04-01T14:38:39;11.40;99.90
31783;DHT22;18351;47.560;9.708;2023-04-01T14:41:26;11.30;99.90
31783;DHT22;18351;47.560;9.708;2023-04-01T14:44:24;11.20;99.90
31783;DHT22;18351;47.560;9.708;2023-04-01T14:47:22;11.30;99.90
31783;DHT22;18351;47.560;9.708;2023-04-01T14:49:53;11.20;99.90
31783;DHT22;18351;47.560;9.708;2023-04-01T14:52:31;11.20;99.90
31783;DHT22;18351;47.560;9.708;2023-04-01T14:55:15;11.10;99.90
31783;DHT22;18351;47.560;9.708;2023-04-01T14:58:19;11.10;99.90
31783;DHT22;18351;47.560;9.708;2023-04-01T15:00:59;11.20;99.90
31783;DHT22;18351;47.560;9.708;2023-04-01T15:03:39;11.00;99.90
31783;DHT22;18351;47.560;9.708;2023-04-01T15:09:16;11.10;99.90
31783;DHT22;18351;47.560;9.708;2023-04-01T15:14:51;11.30;99.90
31783;DHT22;18351;47.560;9.708;2023-04-01T15:17:36;11.40;99.90
31783;DHT22;18351;47.560;9.708;2023-04-01T15:20:29;11.30;99.90
31783;DHT22;18351;47.560;9.708;2023-04-01T15:23:20;11.20;99.90
31783;DHT22;18351;47.560;9.708;2023-04-01T15:28:34;11.20;99.90
31783;DHT22;18351;47.560;9.708;2023-04-01T15:39:18;11.30;99.90
31783;DHT22;18351;47.560;9.708;2023-04-01T15:45:14;11.30;99.90
31783;DHT22;18351;47.560;9.708;2023-04-01T15:54:27;11.30;99.90
31783;DHT22;18351;47.560;9.708;2023-04-01T15:57:16;11.30;99.90
31783;DHT22;18351;47.560;9.708;2023-04-01T16:02:48;11.10;99.90
31783;DHT22;18351;47.560;9.708;2023-04-01T16:05:51;10.60;99.90
31783;DHT22;18351;47.560;9.708;2023-04-01T16:16:54;9.50;99.90
31783;DHT22;18351;47.560;9.708;2023-04-01T16:24:43;9.60;99.90
31783;DHT22;18351;47.560;9.708;2023-04-01T16:32:44;9.80;99.90
31783;DHT22;18351;47.560;9.708;2023-04-01T16:35:44;9.90;99.90
31783;DHT22;18351;47.560;9.708;2023-04-01T16:38:38;9.90;99.90
31783;DHT22;18351;47.560;9.708;2023-04-01T16:41:23;10.00;99.90
31783;DHT22;18351;47.560;9.708;2023-04-01T16:43:53;9.90;99.90
31783;DHT22;18351;47.560;9.708;2023-04-01T16:46:38;10.00;99.90
31783;DHT22;18351;47.560;9.708;2023-04-01T16:54:54;10.00;99.90
31783;DHT22;18351;47.560;9.708;2023-04-01T16:57:26;10.10;99.90
31783;DHT22;18351;47.560;9.708;2023-04-01T16:59:54;10.10;99.90
31783;DHT22;18351;47.560;9.708;2023-04-01T17:02:35;10.10;99.90
31783;DHT22;18351;47.560;9.708;2023-04-01T17:05:04;10.10;99.90
31783;DHT22;18351;47.560;9.708;2023-04-01T17:11:05;10.00;99.90
31783;DHT22;18351;47.560;9.708;2023-04-01T17:30:54;9.80;99.90
31783;DHT22;18351;47.560;9.708;2023-04-01T17:33:37;9.80;99.90
31783;DHT22;18351;47.560;9.708;2023-04-01T17:36:19;9.70;99.90
31783;DHT22;18351;47.560;9.708;2023-04-01T17:42:10;9.60;99.90
31783;DHT22;18351;47.560;9.708;2023-04-01T17:45:10;9.50;99.90
31783;DHT22;18351;47.560;9.708;2023-04-01T17:50:18;9.40;99.90
31783;DHT22;18351;47.560;9.708;2023-04-01T17:52:47;9.30;99.90
31783;DHT22;18351;47.560;9.708;2023-04-01T17:55:26;9.30;99.90
31783;DHT22;18351;47.560;9.708;2023-04-01T17:58:07;9.30;99.90
31783;DHT22;18351;47.560;9.708;2023-04-01T18:06:32;9.20;99.90
31783;DHT22;18351;47.560;9.708;2023-04-01T18:12:21;9.20;99.90
31783;DHT22;18351;47.560;9.708;2023-04-01T18:21:02;9.20;99.90
31783;DHT22;18351;47.560;9.708;2023-04-01T18:23:45;9.20;99.90
31783;DHT22;18351;47.560;9.708;2023-04-01T18:26:28;9.20;99.90
31783;DHT22;18351;47.560;9.708;2023-04-01T18:29:18;9.30;99.90
31783;DHT22;18351;47.560;9.708;2023-04-01T18:32:00;9.20;99.90
31783;DHT22;18351;47.560;9.708;2023-04-01T18:34:52;9.30;99.90
31783;DHT22;18351;47.560;9.708;2023-04-01T18:37:25;9.30;99.90
31783;DHT22;18351;47.560;9.708;2023-04-01T18:40:02;9.30;99.90
31783;DHT22;18351;47.560;9.708;2023-04-01T18:42:57;9.30;99.90
31783;DHT22;18351;47.560;9.708;2023-04-01T18:45:32;9.30;99.90
31783;DHT22;18351;47.560;9.708;2023-04-01T18:48:14;9.30;99.90
31783;DHT22;18351;47.560;9.708;2023-04-01T18:50:43;9.30;99.90
31783;DHT22;18351;47.560;9.708;2023-04-01T18:56:10;9.20;99.90
31783;DHT22;18351;47.560;9.708;2023-04-01T19:04:31;8.90;99.90
31783;DHT22;18351;47.560;9.708;2023-04-01T19:07:01;8.80;99.90
31783;DHT22;18351;47.560;9.708;2023-04-01T19:09:42;8.90;99.90
31783;DHT22;18351;47.560;9.708;2023-04-01T19:12:19;8.80;99.90
31783;DHT22;18351;47.560;9.708;2023-04-01T19:21:05;8.80;99.90
31783;DHT22;18351;47.560;9.708;2023-04-01T19:29:20;8.80;99.90
31783;DHT22;18351;47.560;9.708;2023-04-01T19:32:14;8.80;99.90
31783;DHT22;18351;47.560;9.708;2023-04-01T19:37:56;8.70;99.90
31783;DHT22;18351;47.560;9.708;2023-04-01T19:45:53;8.80;99.90
31783;DHT22;18351;47.560;9.708;2023-04-01T19:48:39;8.80;99.90
31783;DHT22;18351;47.560;9.708;2023-04-01T19:54:02;8.80;99.90
31783;DHT22;18351;47.560;9.708;2023-04-01T19:56:41;8.80;99.90
31783;DHT22;18351;47.560;9.708;2023-04-01T19:59:34;8.90;99.90
31783;DHT22;18351;47.560;9.708;2023-04-01T20:04:49;8.90;99.90
31783;DHT22;18351;47.560;9.708;2023-04-01T20:07:26;8.80;99.90
31783;DHT22;18351;47.560;9.708;2023-04-01T20:10:12;8.80;99.90
31783;DHT22;18351;47.560;9.708;2023-04-01T20:12:58;8.70;99.90
31783;DHT22;18351;47.560;9.708;2023-04-01T20:15:39;8.70;99.90
31783;DHT22;18351;47.560;9.708;2023-04-01T20:18:14;8.70;99.90
31783;DHT22;18351;47.560;9.708;2023-04-01T20:20:56;8.60;99.90
31783;DHT22;18351;47.560;9.708;2023-04-01T20:26:24;8.50;99.90
31783;DHT22;18351;47.560;9.708;2023-04-01T20:32:18;8.50;99.90
31783;DHT22;18351;47.560;9.708;2023-04-01T20:37:36;8.60;99.90
31783;DHT22;18351;47.560;9.708;2023-04-01T20:40:20;8.60;99.90
31783;DHT22;18351;47.560;9.708;2023-04-01T20:46:19;8.60;99.90
31783;DHT22;18351;47.560;9.708;2023-04-01T20:49:39;8.60;99.90
31783;DHT22;18351;47.560;9.708;2023-04-01T20:52:02;8.60;99.90
31783;DHT22;18351;47.560;9.708;2023-04-01T21:22:18;8.50;99.90
31783;DHT22;18351;47.560;9.708;2023-04-01T21:25:21;8.50;99.90
31783;DHT22;18351;47.560;9.708;2023-04-01T21:31:04;8.40;99.90
31783;DHT22;18351;47.560;9.708;2023-04-01T21:42:16;8.50;99.90
31783;DHT22;18351;47.560;9.708;2023-04-01T21:44:56;8.50;99.90
31783;DHT22;18351;47.560;9.708;2023-04-01T21:50:39;8.50;99.90
31783;DHT22;18351;47.560;9.708;2023-04-01T21:56:20;8.50;99.90
31783;DHT22;18351;47.560;9.708;2023-04-01T22:07:20;8.60;99.90
31783;DHT22;18351;47.560;9.708;2023-04-01T22:12:54;8.60;99.90
31783;DHT22;18351;47.560;9.708;2023-04-01T22:15:49;8.60;99.90
31783;DHT22;18351;47.560;9.708;2023-04-01T22:21:05;8.60;99.90
31783;DHT22;18351;47.560;9.708;2023-04-01T22:26:32;8.60;99.90
31783;DHT22;18351;47.560;9.708;2023-04-01T22:32:06;8.50;99.90
31783;DHT22;18351;47.560;9.708;2023-04-01T22:34:55;8.50;99.90
31783;DHT22;18351;47.560;9.708;2023-04-01T22:37:40;8.50;99.90
31783;DHT22;18351;47.560;9.708;2023-04-01T22:40:27;8.60;99.90
31783;DHT22;18351;47.560;9.708;2023-04-01T22:43:45;8.50;99.90
31783;DHT22;18351;47.560;9.708;2023-04-01T22:48:46;8.40;99.90
31783;DHT22;18351;47.560;9.708;2023-04-01T23:00:06;8.40;99.90
31783;DHT22;18351;47.560;9.708;2023-04-01T23:02:39;8.50;99.90
31783;DHT22;18351;47.560;9.708;2023-04-01T23:05:09;8.50;99.90
31783;DHT22;18351;47.560;9.708;2023-04-01T23:13:03;8.50;99.90
31783;DHT22;18351;47.560;9.708;2023-04-01T23:15:30;8.50;99.90
31783;DHT22;18351;47.560;9.708;2023-04-01T23:21:12;8.50;99.90
31783;DHT22;18351;47.560;9.708;2023-04-01T23:23:45;8.50;99.90
31783;DHT22;18351;47.560;9.708;2023-04-01T23:28:58;8.50;99.90
31783;DHT22;18351;47.560;9.708;2023-04-01T23:31:38;8.50;99.90
31783;DHT22;18351;47.560;9.708;2023-04-01T23:36:38;8.50;99.90
31783;DHT22;18351;47.560;9.708;2023-04-01T23:39:13;8.50;99.90
31783;DHT22;18351;47.560;9.708;2023-04-01T23:41:45;8.50;99.90
31783;DHT22;18351;47.560;9.708;2023-04-01T23:44:13;8.50;99.90
31783;DHT22;18351;47.560;9.708;2023-04-01T23:46:40;8.50;99.90
31783;DHT22;18351;47.560;9.708;2023-04-01T23:49:17;8.50;99.90
31783;DHT22;18351;47.560;9.708;2023-04-01T23:51:59;8.50;99.90
31783;DHT22;18351;47.560;9.708;2023-04-01T23:54:33;8.50;99.90
31783;DHT22;18351;47.560;9.708;2023-04-01T23:57:10;8.50;99.90
31783;DHT22;18351;47.560;9.708;2023-04-01T23:59:37;8.50;99.90
